createdAt,value
2018-06-30T00:02:05.539Z,17.74
2018-06-30T00:04:32.865Z,17.72
2018-06-30T00:07:00.130Z,17.66
2018-06-30T00:09:28.051Z,17.62
2018-06-30T00:11:55.281Z,17.61
2018-06-30T00:14:22.560Z,17.64
2018-06-30T00:19:39.926Z,17.59
2018-06-30T00:22:07.418Z,17.56
2018-06-30T00:24:34.697Z,17.50
2018-06-30T00:27:08.005Z,17.47
2018-06-30T00:29:35.296Z,17.45
2018-06-30T00:32:02.554Z,17.36
2018-06-30T00:34:29.834Z,17.35
2018-06-30T00:36:57.103Z,17.32
2018-06-30T00:39:24.353Z,17.24
2018-06-30T00:41:51.617Z,17.15
2018-06-30T00:44:19.198Z,17.08
2018-06-30T00:46:46.415Z,17.06
2018-06-30T00:49:14.213Z,16.98
2018-06-30T00:51:41.485Z,16.97
2018-06-30T00:54:08.734Z,16.92
2018-06-30T00:56:36.021Z,16.89
2018-06-30T00:59:03.298Z,16.85
2018-06-30T01:01:30.579Z,16.84
2018-06-30T01:03:57.841Z,16.76
2018-06-30T01:06:25.133Z,16.74
2018-06-30T01:08:52.366Z,16.57
2018-06-30T01:11:19.640Z,16.41
2018-06-30T01:13:46.947Z,16.32
2018-06-30T01:16:14.267Z,16.26
2018-06-30T01:18:42.269Z,16.13
2018-06-30T01:21:09.757Z,16.07
2018-06-30T01:23:37.046Z,15.94
2018-06-30T01:26:04.608Z,15.98
2018-06-30T01:28:31.842Z,15.95
2018-06-30T01:30:59.085Z,15.91
2018-06-30T01:33:26.366Z,15.90
2018-06-30T01:35:53.627Z,15.90
2018-06-30T01:38:20.877Z,15.92
2018-06-30T01:40:48.126Z,15.88
2018-06-30T01:43:15.372Z,15.89
2018-06-30T01:45:42.632Z,15.93
2018-06-30T01:48:09.895Z,15.91
2018-06-30T01:50:37.357Z,15.88
2018-06-30T01:53:04.783Z,15.88
2018-06-30T01:55:32.536Z,15.88
2018-06-30T01:57:59.961Z,15.89
2018-06-30T02:00:27.196Z,15.85
2018-06-30T02:02:54.471Z,15.82
2018-06-30T02:05:21.739Z,15.85
2018-06-30T02:07:49.011Z,15.91
2018-06-30T02:10:16.289Z,15.93
2018-06-30T02:12:43.542Z,15.93
2018-06-30T02:15:10.852Z,15.88
2018-06-30T02:17:38.227Z,15.87
2018-06-30T02:20:05.570Z,15.86
2018-06-30T02:22:32.819Z,15.83
2018-06-30T02:25:00.069Z,15.83
2018-06-30T02:27:27.327Z,15.84
2018-06-30T02:29:54.555Z,15.83
2018-06-30T02:32:21.833Z,15.81
2018-06-30T02:34:49.083Z,15.73
2018-06-30T02:37:16.398Z,15.67
2018-06-30T02:39:43.690Z,15.55
2018-06-30T02:42:11.009Z,15.44
2018-06-30T02:44:38.277Z,15.35
2018-06-30T02:47:05.675Z,15.22
2018-06-30T02:49:33.083Z,15.19
2018-06-30T02:52:00.428Z,14.99
2018-06-30T02:54:27.891Z,14.86
2018-06-30T02:56:55.182Z,14.82
2018-06-30T02:59:22.526Z,14.80
2018-06-30T03:01:49.988Z,14.84
2018-06-30T03:04:17.621Z,14.73
2018-06-30T03:06:44.984Z,14.62
2018-06-30T03:09:12.365Z,14.60
2018-06-30T03:11:40.099Z,14.49
2018-06-30T03:14:07.502Z,14.47
2018-06-30T03:16:35.445Z,14.44
2018-06-30T03:19:04.416Z,14.41
2018-06-30T03:21:33.920Z,14.44
2018-06-30T03:24:03.141Z,14.50
2018-06-30T03:26:30.499Z,14.50
2018-06-30T03:28:57.884Z,14.50
2018-06-30T03:31:25.244Z,14.41
2018-06-30T03:33:52.603Z,14.35
2018-06-30T03:36:19.968Z,14.31
2018-06-30T03:38:48.071Z,14.28
2018-06-30T03:41:15.424Z,14.28
2018-06-30T03:43:42.850Z,14.27
2018-06-30T03:46:10.247Z,14.20
2018-06-30T03:48:37.733Z,14.16
2018-06-30T03:51:05.510Z,14.05
2018-06-30T03:53:32.912Z,14.01
2018-06-30T03:56:00.272Z,14.01
2018-06-30T03:58:27.651Z,14.01
2018-06-30T04:00:55.033Z,13.90
2018-06-30T04:03:22.418Z,13.97
2018-06-30T04:05:49.782Z,13.98
2018-06-30T04:08:17.228Z,14.07
2018-06-30T04:10:45.893Z,14.14
2018-06-30T04:13:13.180Z,14.20
2018-06-30T04:15:40.672Z,14.19
2018-06-30T04:18:08.077Z,14.20
2018-06-30T04:20:35.527Z,14.32
2018-06-30T04:23:02.963Z,14.34
2018-06-30T04:25:30.653Z,14.30
2018-06-30T04:27:58.412Z,14.29
2018-06-30T04:30:25.772Z,14.33
2018-06-30T04:32:53.101Z,14.39
2018-06-30T04:35:20.504Z,14.42
2018-06-30T04:37:49.349Z,14.47
2018-06-30T04:40:16.826Z,14.59
2018-06-30T04:42:44.222Z,14.72
2018-06-30T04:45:11.606Z,14.71
2018-06-30T04:47:39.922Z,14.77
2018-06-30T04:50:08.300Z,14.94
2018-06-30T04:52:35.639Z,14.96
2018-06-30T04:55:03.069Z,15.14
2018-06-30T04:57:30.422Z,15.41
2018-06-30T04:59:59.019Z,15.60
2018-06-30T05:02:26.446Z,15.58
2018-06-30T05:04:53.877Z,15.59
2018-06-30T05:07:21.461Z,15.62
2018-06-30T05:09:49.468Z,15.46
2018-06-30T05:12:16.980Z,15.73
2018-06-30T05:14:44.341Z,16.01
2018-06-30T05:17:11.702Z,16.27
2018-06-30T05:19:39.661Z,16.57
2018-06-30T05:22:07.055Z,16.93
2018-06-30T05:24:35.139Z,17.15
2018-06-30T05:27:02.514Z,17.58
2018-06-30T05:29:30.583Z,17.33
2018-06-30T05:31:57.980Z,17.44
2018-06-30T05:34:25.494Z,17.56
2018-06-30T05:36:53.005Z,17.30
2018-06-30T05:39:20.385Z,17.47
2018-06-30T05:41:47.791Z,17.24
2018-06-30T05:44:15.295Z,16.98
2018-06-30T05:46:42.705Z,16.64
2018-06-30T05:49:10.063Z,16.40
2018-06-30T05:51:37.434Z,16.04
2018-06-30T05:54:04.867Z,16.02
2018-06-30T05:56:32.259Z,16.18
2018-06-30T05:58:59.684Z,16.74
2018-06-30T06:01:27.102Z,17.40
2018-06-30T06:03:54.452Z,17.25
2018-06-30T06:06:22.584Z,17.56
2018-06-30T06:08:49.977Z,17.89
2018-06-30T06:11:17.466Z,17.98
2018-06-30T06:13:45.016Z,17.78
2018-06-30T06:16:12.467Z,17.64
2018-06-30T06:18:39.891Z,17.32
2018-06-30T06:21:07.267Z,17.26
2018-06-30T06:23:35.336Z,17.63
2018-06-30T06:26:02.792Z,18.21
2018-06-30T06:28:30.269Z,18.45
2018-06-30T06:30:57.635Z,19.07
2018-06-30T06:33:25.089Z,19.24
2018-06-30T06:35:52.447Z,19.44
2018-06-30T06:38:19.824Z,19.22
2018-06-30T06:40:47.227Z,19.56
2018-06-30T06:43:14.570Z,19.13
2018-06-30T06:45:42.732Z,19.24
2018-06-30T06:48:10.081Z,19.12
2018-06-30T06:50:37.943Z,19.28
2018-06-30T06:53:06.124Z,19.06
2018-06-30T06:55:33.436Z,19.67
2018-06-30T06:58:00.793Z,19.46
2018-06-30T07:00:28.129Z,19.56
2018-06-30T07:02:55.460Z,19.81
2018-06-30T07:05:22.846Z,19.73
2018-06-30T07:07:50.203Z,19.78
2018-06-30T07:10:18.051Z,20.25
2018-06-30T07:12:46.046Z,20.42
2018-06-30T07:15:13.610Z,20.36
2018-06-30T07:17:41.038Z,20.48
2018-06-30T07:20:08.463Z,20.77
2018-06-30T07:22:35.871Z,21.19
2018-06-30T07:25:03.369Z,21.45
2018-06-30T07:27:30.716Z,20.97
2018-06-30T07:29:58.156Z,21.48
2018-06-30T07:32:25.494Z,21.46
2018-06-30T07:34:52.862Z,21.74
2018-06-30T07:37:20.233Z,21.41
2018-06-30T07:39:47.621Z,21.41
2018-06-30T07:42:15.037Z,21.74
2018-06-30T07:44:42.712Z,22.02
2018-06-30T07:47:10.425Z,21.98
2018-06-30T07:49:37.768Z,21.70
2018-06-30T07:52:06.505Z,21.73
2018-06-30T07:54:33.862Z,21.55
2018-06-30T07:57:02.179Z,21.77
2018-06-30T07:59:29.611Z,21.80
2018-06-30T08:01:57.034Z,21.66
2018-06-30T08:04:24.518Z,22.57
2018-06-30T08:06:57.964Z,22.81
2018-06-30T08:09:25.646Z,22.74
2018-06-30T08:11:52.926Z,22.58
2018-06-30T08:14:20.307Z,22.75
2018-06-30T08:16:47.656Z,22.87
2018-06-30T08:19:15.034Z,22.65
2018-06-30T08:21:42.468Z,22.47
2018-06-30T08:24:09.988Z,22.34
2018-06-30T08:26:37.395Z,22.49
2018-06-30T08:29:04.879Z,22.59
2018-06-30T08:31:32.244Z,22.65
2018-06-30T08:34:00.109Z,22.92
2018-06-30T08:36:27.524Z,23.24
2018-06-30T08:38:54.855Z,23.67
2018-06-30T08:41:22.284Z,23.20
2018-06-30T08:43:49.653Z,22.96
2018-06-30T08:46:17.046Z,23.10
2018-06-30T08:48:45.329Z,22.86
2018-06-30T08:51:12.848Z,23.48
2018-06-30T08:53:40.585Z,23.39
2018-06-30T08:56:08.015Z,24.16
2018-06-30T08:58:35.549Z,23.70
2018-06-30T09:01:03.062Z,23.85
2018-06-30T09:03:30.443Z,23.83
2018-06-30T09:05:58.579Z,24.04
2018-06-30T09:08:26.008Z,24.05
2018-06-30T09:16:43.012Z,24.66
2018-06-30T09:19:10.675Z,23.85
2018-06-30T09:21:38.137Z,24.06
2018-06-30T09:24:06.205Z,24.17
2018-06-30T09:26:34.603Z,24.03
2018-06-30T09:29:02.052Z,24.55
2018-06-30T09:31:31.838Z,24.63
2018-06-30T09:33:59.617Z,24.43
2018-06-30T09:36:30.461Z,24.79
2018-06-30T09:38:58.271Z,24.75
2018-06-30T09:41:25.726Z,24.54
2018-06-30T09:43:53.162Z,24.55
2018-06-30T09:46:20.817Z,24.13
2018-06-30T09:48:48.557Z,23.95
2018-06-30T09:51:19.589Z,23.99
2018-06-30T09:53:54.649Z,23.64
2018-06-30T09:56:25.548Z,23.93
2018-06-30T09:59:01.685Z,23.53
2018-06-30T10:01:33.212Z,25.04
2018-06-30T10:04:01.955Z,24.71
2018-06-30T10:06:29.354Z,25.17
2018-06-30T10:08:56.889Z,25.17
2018-06-30T10:11:24.301Z,24.91
2018-06-30T10:13:52.616Z,25.48
2018-06-30T10:16:20.007Z,24.87
2018-06-30T10:18:49.061Z,24.92
2018-06-30T10:21:16.495Z,25.23
2018-06-30T10:23:45.635Z,25.03
2018-06-30T10:26:13.079Z,25.52
2018-06-30T10:28:40.537Z,25.80
2018-06-30T10:31:07.998Z,25.61
2018-06-30T10:33:35.379Z,25.52
2018-06-30T10:36:02.808Z,26.15
2018-06-30T10:38:30.516Z,25.90
2018-06-30T10:40:58.149Z,25.70
2018-06-30T10:43:25.810Z,25.38
2018-06-30T10:45:53.221Z,26.30
2018-06-30T10:48:20.878Z,25.94
2018-06-30T10:50:50.633Z,26.37
2018-06-30T10:53:18.135Z,26.05
2018-06-30T10:55:45.629Z,25.81
2018-06-30T10:58:13.715Z,26.36
2018-06-30T11:00:41.303Z,26.21
2018-06-30T11:03:08.826Z,26.35
2018-06-30T11:05:48.825Z,26.34
2018-06-30T11:08:16.794Z,26.58
2018-06-30T11:10:44.247Z,27.01
2018-06-30T11:13:11.613Z,26.57
2018-06-30T11:15:39.028Z,26.98
2018-06-30T11:18:07.034Z,27.00
2018-06-30T11:20:35.136Z,27.12
2018-06-30T11:23:02.679Z,25.90
2018-06-30T11:25:31.342Z,26.40
2018-06-30T11:27:58.748Z,25.74
2018-06-30T11:30:26.114Z,25.84
2018-06-30T11:32:55.050Z,26.03
2018-06-30T11:35:23.182Z,25.55
2018-06-30T11:37:50.578Z,25.95
2018-06-30T11:40:18.853Z,26.37
2018-06-30T11:42:46.312Z,26.38
2018-06-30T11:45:15.697Z,26.84
2018-06-30T11:47:43.094Z,25.19
2018-06-30T11:50:11.216Z,26.26
2018-06-30T11:52:39.432Z,26.65
2018-06-30T11:55:06.856Z,26.13
2018-06-30T11:57:35.290Z,25.60
2018-06-30T12:00:05.021Z,26.40
2018-06-30T12:02:32.448Z,26.03
2018-06-30T12:04:59.812Z,26.05
2018-06-30T12:07:27.690Z,26.31
2018-06-30T12:09:55.296Z,26.21
2018-06-30T12:12:25.196Z,26.53
2018-06-30T12:14:54.845Z,26.91
2018-06-30T12:17:25.751Z,26.33
2018-06-30T12:19:55.782Z,26.56
2018-06-30T12:22:25.016Z,26.36
2018-06-30T12:24:52.448Z,25.97
2018-06-30T12:27:20.742Z,25.78
2018-06-30T12:29:48.221Z,25.50
2018-06-30T12:32:15.747Z,26.12
2018-06-30T12:34:43.178Z,26.75
2018-06-30T12:37:10.567Z,25.29
2018-06-30T12:39:37.920Z,26.23
2018-06-30T12:42:05.420Z,26.24
2018-06-30T12:44:33.522Z,26.26
2018-06-30T12:47:01.592Z,26.59
2018-06-30T12:49:29.092Z,25.59
2018-06-30T12:51:57.707Z,26.06
2018-06-30T12:54:25.219Z,26.34
2018-06-30T12:56:52.951Z,26.46
2018-06-30T12:59:20.808Z,26.48
2018-06-30T13:01:48.237Z,26.20
2018-06-30T13:04:15.646Z,25.86
2018-06-30T13:06:43.066Z,26.49
2018-06-30T13:09:12.019Z,26.24
2018-06-30T13:11:39.611Z,25.79
2018-06-30T13:14:07.636Z,26.09
2018-06-30T13:16:36.120Z,25.53
2018-06-30T13:19:03.705Z,25.97
2018-06-30T13:21:31.245Z,26.28
2018-06-30T13:23:58.713Z,26.07
2018-06-30T13:26:26.074Z,26.03
2018-06-30T13:28:54.057Z,25.80
2018-06-30T13:31:21.612Z,25.81
2018-06-30T13:33:49.013Z,25.21
2018-06-30T13:36:16.416Z,25.51
2018-06-30T13:38:44.926Z,26.23
2018-06-30T13:41:12.440Z,24.85
2018-06-30T13:43:39.871Z,25.54
2018-06-30T13:46:07.408Z,25.40
2018-06-30T13:48:34.908Z,25.39
2018-06-30T13:51:02.799Z,24.99
2018-06-30T13:53:30.390Z,24.81
2018-06-30T13:55:57.897Z,25.23
2018-06-30T13:58:25.380Z,24.94
2018-06-30T14:00:53.418Z,24.81
2018-06-30T14:03:20.907Z,25.07
2018-06-30T14:05:48.307Z,24.67
2018-06-30T14:08:15.678Z,24.68
2018-06-30T14:10:43.011Z,24.75
2018-06-30T14:13:10.458Z,24.40
2018-06-30T14:15:37.868Z,24.30
2018-06-30T14:18:05.302Z,24.53
2018-06-30T14:20:32.690Z,24.61
2018-06-30T14:23:00.142Z,23.92
2018-06-30T14:25:28.328Z,24.42
2018-06-30T14:27:55.729Z,24.55
2018-06-30T14:30:23.190Z,24.74
2018-06-30T14:32:51.200Z,24.28
2018-06-30T14:35:18.573Z,23.94
2018-06-30T14:37:45.981Z,23.73
2018-06-30T14:40:13.457Z,23.47
2018-06-30T14:42:40.969Z,23.76
2018-06-30T14:45:08.425Z,24.24
2018-06-30T14:47:35.760Z,23.89
2018-06-30T14:50:03.256Z,23.65
2018-06-30T14:52:31.191Z,23.60
2018-06-30T14:54:58.571Z,24.30
2018-06-30T14:57:26.034Z,24.30
2018-06-30T14:59:53.414Z,23.89
2018-06-30T15:02:23.247Z,23.81
2018-06-30T15:04:52.288Z,23.26
2018-06-30T15:07:19.790Z,23.53
2018-06-30T15:09:48.009Z,23.42
2018-06-30T15:12:15.735Z,23.19
2018-06-30T15:14:43.539Z,23.56
2018-06-30T15:17:11.547Z,23.33
2018-06-30T15:19:39.932Z,23.02
2018-06-30T15:22:07.957Z,23.34
2018-06-30T15:24:36.073Z,23.46
2018-06-30T15:27:04.608Z,23.58
2018-06-30T15:29:32.407Z,23.54
2018-06-30T15:32:00.025Z,23.40
2018-06-30T15:34:27.924Z,23.32
2018-06-30T15:36:55.937Z,23.28
2018-06-30T15:39:24.090Z,23.17
2018-06-30T15:41:52.230Z,23.09
2018-06-30T15:44:20.413Z,23.23
2018-06-30T15:46:49.580Z,23.10
2018-06-30T15:49:17.580Z,23.04
2018-06-30T15:51:45.422Z,22.87
2018-06-30T15:54:13.388Z,23.32
2018-06-30T15:56:41.274Z,23.42
2018-06-30T15:59:09.556Z,22.97
2018-06-30T16:01:37.448Z,22.92
2018-06-30T16:04:05.732Z,22.97
2018-06-30T16:06:34.268Z,22.99
2018-06-30T16:09:03.105Z,22.82
2018-06-30T16:11:31.372Z,22.55
2018-06-30T16:14:00.392Z,22.71
2018-06-30T16:16:28.689Z,22.86
2018-06-30T16:18:57.474Z,23.00
2018-06-30T16:21:26.281Z,22.88
2018-06-30T16:23:55.641Z,22.79
2018-06-30T16:26:24.119Z,22.52
2018-06-30T16:28:52.070Z,22.61
2018-06-30T16:31:21.644Z,22.58
2018-06-30T16:33:50.632Z,22.39
2018-06-30T16:36:19.324Z,22.38
2018-06-30T16:38:47.600Z,22.59
2018-06-30T16:41:16.167Z,22.47
2018-06-30T16:43:44.988Z,22.69
2018-06-30T16:46:13.012Z,22.53
2018-06-30T16:48:41.544Z,22.35
2018-06-30T16:51:09.638Z,22.51
2018-06-30T16:53:37.964Z,22.40
2018-06-30T16:56:06.300Z,22.45
2018-06-30T16:58:35.273Z,22.36
2018-06-30T17:01:04.349Z,22.26
2018-06-30T17:03:33.388Z,22.07
2018-06-30T17:06:02.128Z,22.04
2018-06-30T17:08:30.381Z,22.07
2018-06-30T17:10:59.093Z,22.13
2018-06-30T17:13:30.534Z,22.07
2018-06-30T17:15:58.446Z,22.07
2018-06-30T17:18:27.342Z,22.01
2018-06-30T17:20:56.612Z,21.81
2018-06-30T17:23:25.964Z,21.69
2018-06-30T17:25:54.702Z,21.77
2018-06-30T17:28:23.724Z,21.51
2018-06-30T17:30:51.340Z,21.47
2018-06-30T17:33:21.616Z,21.45
2018-06-30T17:35:51.333Z,21.49
2018-06-30T17:38:21.255Z,21.58
2018-06-30T17:40:50.813Z,21.50
2018-06-30T17:43:19.252Z,21.50
2018-06-30T17:45:47.048Z,21.44
2018-06-30T17:48:14.958Z,21.43
2018-06-30T17:50:43.350Z,21.37
2018-06-30T17:53:12.198Z,21.32
2018-06-30T17:55:41.533Z,21.17
2018-06-30T17:58:09.067Z,21.04
2018-06-30T18:00:38.200Z,20.97
2018-06-30T18:03:09.914Z,20.85
2018-06-30T18:05:37.442Z,20.82
2018-06-30T18:08:05.776Z,20.83
2018-06-30T18:10:35.468Z,20.70
2018-06-30T18:13:04.105Z,20.83
2018-06-30T18:15:33.234Z,20.71
2018-06-30T18:18:09.027Z,20.63
2018-06-30T18:20:36.551Z,20.62
2018-06-30T18:23:05.240Z,20.53
2018-06-30T18:25:34.102Z,20.54
2018-06-30T18:28:08.094Z,20.52
2018-06-30T18:30:36.143Z,20.36
2018-06-30T18:33:04.750Z,20.31
2018-06-30T18:35:32.452Z,20.15
2018-06-30T18:38:00.006Z,20.22
2018-06-30T18:40:28.294Z,20.12
2018-06-30T18:42:55.904Z,20.09
2018-06-30T18:45:23.718Z,20.00
2018-06-30T18:47:54.262Z,19.93
2018-06-30T18:50:21.682Z,19.93
2018-06-30T18:52:49.178Z,19.85
2018-06-30T18:55:18.235Z,19.72
2018-06-30T18:57:46.679Z,19.62
2018-06-30T19:00:15.848Z,19.58
2018-06-30T19:02:45.450Z,19.56
2018-06-30T19:05:14.451Z,19.40
2018-06-30T19:07:44.632Z,19.27
2018-06-30T19:10:14.691Z,19.16
2018-06-30T19:12:42.506Z,19.08
2018-06-30T19:15:11.434Z,18.88
2018-06-30T19:17:39.505Z,18.83
2018-06-30T19:20:11.316Z,18.80
2018-06-30T19:22:40.189Z,18.69
2018-06-30T19:25:11.276Z,18.57
2018-06-30T19:27:41.251Z,18.48
2018-06-30T19:30:10.547Z,18.40
2018-06-30T19:32:41.192Z,18.33
2018-06-30T19:35:09.183Z,18.29
2018-06-30T19:37:37.832Z,18.20
2018-06-30T19:40:06.314Z,18.15
2018-06-30T19:42:36.138Z,18.15
2018-06-30T19:45:04.370Z,18.08
2018-06-30T19:47:37.067Z,18.09
2018-06-30T19:50:09.265Z,18.05
2018-06-30T19:52:37.489Z,17.95
2018-06-30T19:55:08.012Z,17.90
2018-06-30T19:57:36.825Z,17.82
2018-06-30T20:02:32.931Z,17.71
2018-06-30T20:05:01.506Z,17.60
2018-06-30T20:07:34.339Z,17.58
2018-06-30T20:10:04.545Z,17.52
2018-06-30T20:12:33.284Z,17.51
2018-06-30T20:15:02.524Z,17.45
2018-06-30T20:17:32.645Z,17.43
2018-06-30T20:20:07.584Z,17.21
2018-06-30T20:22:37.014Z,16.86
2018-06-30T20:25:10.921Z,16.76
2018-06-30T20:27:40.729Z,16.72
2018-06-30T20:30:14.826Z,16.66
2018-06-30T20:32:43.123Z,16.60
2018-06-30T20:35:10.764Z,16.51
2018-06-30T20:37:38.379Z,16.41
2018-06-30T20:40:06.309Z,16.41
2018-06-30T20:42:39.662Z,16.23
2018-06-30T20:45:09.532Z,16.13
2018-06-30T20:47:40.108Z,16.03
2018-06-30T20:50:09.881Z,16.08
2018-06-30T20:52:42.104Z,16.12
2018-06-30T20:55:09.693Z,16.16
2018-06-30T20:57:37.854Z,16.09
2018-06-30T21:00:06.779Z,15.86
2018-06-30T21:02:36.112Z,15.78
2018-06-30T21:05:04.259Z,15.71
2018-06-30T21:07:32.009Z,15.61
2018-06-30T21:09:59.573Z,15.62
2018-06-30T21:12:27.103Z,15.57
2018-06-30T21:14:54.930Z,15.55
2018-06-30T21:17:24.110Z,15.58
2018-06-30T21:19:52.346Z,15.49
2018-06-30T21:22:19.782Z,15.41
2018-06-30T21:24:48.116Z,15.42
2018-06-30T21:27:15.615Z,15.43
2018-06-30T21:29:43.010Z,15.52
2018-06-30T21:32:10.351Z,15.52
2018-06-30T21:34:37.687Z,15.50
2018-06-30T21:37:05.153Z,15.47
2018-06-30T21:39:32.540Z,15.47
2018-06-30T21:41:59.824Z,15.48
2018-06-30T21:44:27.053Z,15.43
2018-06-30T21:46:54.321Z,15.35
2018-06-30T21:49:21.610Z,15.36
2018-06-30T21:51:48.895Z,15.45
2018-06-30T21:54:16.221Z,15.37
2018-06-30T21:56:43.709Z,15.36
2018-06-30T21:59:11.136Z,15.33
2018-06-30T22:01:38.595Z,15.26
2018-06-30T22:04:05.879Z,15.33
2018-06-30T22:06:33.119Z,15.34
2018-06-30T22:09:00.410Z,15.32
2018-06-30T22:11:27.848Z,15.37
2018-06-30T22:13:55.112Z,15.29
2018-06-30T22:16:22.412Z,15.30
2018-06-30T22:18:49.696Z,15.30
2018-06-30T22:21:16.983Z,15.35
2018-06-30T22:23:44.248Z,15.31
2018-06-30T22:26:11.590Z,15.25
2018-06-30T22:28:38.864Z,15.10
2018-06-30T22:31:06.164Z,15.10
2018-06-30T22:33:33.453Z,15.10
2018-06-30T22:36:00.694Z,15.06
2018-06-30T22:38:27.962Z,15.03
2018-06-30T22:40:55.183Z,15.05
2018-06-30T22:43:22.482Z,15.03
2018-06-30T22:45:49.739Z,15.10
2018-06-30T22:48:17.030Z,15.07
2018-06-30T22:50:44.263Z,15.03
2018-06-30T22:53:11.539Z,14.98
2018-06-30T22:55:38.758Z,14.91
2018-06-30T22:58:06.221Z,14.70
2018-06-30T23:00:33.584Z,14.52
2018-06-30T23:03:02.103Z,14.34
2018-06-30T23:05:29.424Z,14.31
2018-06-30T23:07:56.721Z,14.33
2018-06-30T23:10:24.010Z,14.32
2018-06-30T23:12:51.300Z,14.08
2018-06-30T23:15:18.597Z,13.83
2018-06-30T23:17:45.874Z,13.66
2018-06-30T23:20:13.125Z,13.68
2018-06-30T23:23:01.784Z,13.71
2018-06-30T23:25:30.239Z,13.62
2018-06-30T23:27:58.023Z,13.63
2018-06-30T23:30:25.697Z,13.63
2018-06-30T23:32:52.975Z,13.63
2018-06-30T23:35:21.075Z,13.74
2018-06-30T23:37:48.319Z,13.82
2018-06-30T23:40:16.205Z,13.85
2018-06-30T23:42:43.492Z,13.80
2018-06-30T23:45:10.945Z,13.84
2018-06-30T23:47:38.249Z,13.91
2018-06-30T23:50:05.783Z,13.91
2018-06-30T23:52:33.282Z,13.90
2018-06-30T23:55:00.551Z,13.96
2018-06-30T23:57:27.817Z,13.92
2018-06-30T23:59:55.104Z,14.01
